Flight Track Log - Related Links

Times and Time Zones

All times are in EDT time to prevent confusion due to time zone crossing. See the ASQ4086 flight status page for this flight to view local times or setup timezone preferences in your user account.

Time Position Orientation Groundspeed Altitude Reporting Facility
EDT Latitude Longitude Course Direction KTS MPH feet Rate Location/Type
Sat 08:04:46 AM 41.3919 -81.8783 90° East 168 193 1,600  Level Cleveland Center
Sat 08:05:17 AM 41.3811 -81.9086 245° Southwest 182 209 2,500 2,308 Climbing Cleveland Center
Sat 08:06:17 AM 41.4097 -81.9675 303° West 245 282 5,100 2,612 Climbing Cleveland Center
Sat 08:07:00 AM 41.6576 -81.5925 37° Northeast  Level FlightAware Approximate
Sat 08:07:44 AM 41.4875 -81.9025 32° Northeast 252 290 8,900  Level Cleveland Center
Sat 08:08:00 AM 41.7442 -81.5059 37° Northeast  Level FlightAware Approximate
Sat 08:08:44 AM 41.5156 -81.8089 68° East 253 291 11,600  Level Cleveland Center
Sat 08:09:00 AM 41.8308 -81.4192 37° Northeast  Level FlightAware Approximate
Sat 08:09:44 AM 41.5500 -81.7150 64° Northeast 273 314 14,100  Level Cleveland Center
Sat 08:10:00 AM 41.8500 -81.2788 90° East  Level FlightAware Approximate
Sat 08:10:44 AM 41.5822 -81.6019 69° East 285 328 16,600  Level Cleveland Center
Sat 08:11:44 AM 41.6103 -81.4969 70° East 290 334 18,600 1,600 Climbing Cleveland Center
Sat 08:12:44 AM 41.6403 -81.3750 72° East 317 365 19,800 1,150 Climbing Cleveland Center
Sat 08:13:44 AM 41.6744 -81.2419 71° East 356 410 20,900 1,200 Climbing Cleveland Center
Sat 08:14:44 AM 41.7108 -81.1033 71° East 381 438 22,200 1,300 Climbing Cleveland Center
Sat 08:15:44 AM 41.7447 -80.9617 72° East 400 460 23,500 1,250 Climbing Cleveland Center
Sat 08:16:44 AM 41.7783 -80.8311 71° East 405 466 24,700 1,300 Climbing Cleveland Center
Sat 08:17:44 AM 41.8139 -80.6833 72° East 405 466 26,100 1,350 Climbing Cleveland Center
Sat 08:18:44 AM 41.8517 -80.5358 71° East 405 466 27,400 1,300 Climbing Cleveland Center
Sat 08:19:44 AM 41.8869 -80.3881 72° East 405 466 28,700 1,300 Climbing Cleveland Center
Sat 08:20:44 AM 41.9219 -80.2456 72° East 405 466 30,000 1,350 Climbing Cleveland Center
Sat 08:21:44 AM 41.9569 -80.0972 72° East 405 466 31,400 1,350 Climbing Cleveland Center
Sat 08:22:44 AM 41.9936 -79.9544 71° East 405 466 32,700 1,350 Climbing Cleveland Center
Sat 08:23:44 AM 42.0261 -79.8089 73° East 405 466 34,100 1,150 Climbing Cleveland Center
Sat 08:24:44 AM 42.0625 -79.6658 71° East 405 466 35,000 450 Climbing Cleveland Center
Sat 08:25:44 AM 42.0989 -79.5114 72° East 405 466 35,000  Level Cleveland Center
Sat 08:26:44 AM 42.1347 -79.3539 73° East 417 480 35,000  Level Cleveland Center
Sat 08:27:44 AM 42.1725 -79.1936 72° East 429 494 35,000  Level Cleveland Center
Sat 08:28:44 AM 42.1997 -79.0333 77° East 439 505 35,000  Level Cleveland Center
Sat 08:29:44 AM 42.2244 -78.8617 79° East 445 512 35,000  Level Cleveland Center
Sat 08:30:44 AM 42.2447 -78.6956 81° East 450 518 35,000  Level Cleveland Center
Sat 08:31:44 AM 42.2650 -78.5350 80° East 445 512 35,000  Level Cleveland Center
Sat 08:32:44 AM 42.2847 -78.3717 81° East 445 512 35,000  Level Cleveland Center
Sat 08:33:44 AM 42.3044 -78.2081 81° East 440 506 35,000  Level Cleveland Center
Sat 08:34:44 AM 42.3239 -78.0472 81° East 440 506 35,000  Level Cleveland Center
Sat 08:35:44 AM 42.3433 -77.8861 81° East 435 501 35,000  Level Cleveland Center
Sat 08:38:13 AM 42.3914 -77.4647 81° East 459 528 35,000  Level Boston Center
Sat 08:39:13 AM 42.4111 -77.2975 81° East 454 522 35,000  Level Boston Center
Sat 08:40:13 AM 42.4286 -77.1300 82° East 454 522 35,000  Level Boston Center
Sat 08:41:13 AM 42.4458 -76.9594 82° East 448 516 35,000  Level Boston Center
Sat 08:42:13 AM 42.4650 -76.7892 81° East 448 516 35,000  Level Boston Center
Sat 08:43:13 AM 42.4839 -76.6186 81° East 454 522 35,000  Level Boston Center
Sat 08:44:13 AM 42.5028 -76.4425 82° East 464 534 35,000  Level Boston Center
Sat 08:45:13 AM 42.5119 -76.3022 85° East 464 534 35,000  Level Boston Center
Sat 08:46:13 AM 42.4981 -76.0900 95° East 464 534 35,000  Level Boston Center
Sat 08:47:13 AM 42.4889 -75.9175 94° East 464 534 35,000  Level Boston Center
Sat 08:48:13 AM 42.4756 -75.7367 96° East 470 541 35,000  Level Boston Center
Sat 08:49:13 AM 42.4636 -75.5642 95° East 470 541 35,000  Level Boston Center
Sat 08:50:13 AM 42.4517 -75.3919 95° East 464 534 35,000  Level Boston Center
Sat 08:51:13 AM 42.4372 -75.2169 96° East 464 534 35,000 -50 Level Boston Center
Sat 08:52:13 AM 42.4269 -75.0392 94° East 469 540 34,900 -1,050 Descending Boston Center
Sat 08:53:13 AM 42.4122 -74.8614 96° East 469 540 32,900 -2,200 Descending Boston Center
Sat 08:54:13 AM 42.3989 -74.6922 96° East 463 533 30,500 -1,950 Descending Boston Center
Sat 08:55:13 AM 42.3856 -74.5203 96° East 463 533 29,000 -750 Descending Boston Center
Sat 08:56:13 AM 42.3736 -74.3653 96° East 463 533 29,000 -600 Level Boston Center
Sat 08:57:13 AM 42.3619 -74.1878 95° East 468 539 27,800 -1,350 Descending Boston Center
Sat 08:58:13 AM 42.3458 -74.0103 97° East 473 544 26,300 -1,500 Descending Boston Center
Sat 08:59:13 AM 42.3314 -73.8303 96° East 473 544 24,800 -1,150 Descending Boston Center
Sat 09:00:13 AM 42.3189 -73.6503 95° East 479 551 24,000 -800 Descending Boston Center
Sat 09:01:13 AM 42.3039 -73.4844 97° East 469 540 23,200 -850 Descending Boston Center
Sat 09:02:13 AM 42.2864 -73.3297 99° East 446 513 22,300 -900 Descending Boston Center
Sat 09:03:13 AM 42.2689 -73.1725 99° East 426 490 21,400 -1,150 Descending Boston Center
Sat 09:04:13 AM 42.1906 -73.0342 127° Southeast 415 478 20,000 -1,200 Descending Boston Center
Sat 09:05:13 AM 42.1139 -72.9242 133° Southeast 409 471 19,000 -504 Descending Boston Center
Sat 09:06:12 AM 42.0350 -72.8203 136° Southeast 398 458 19,000 -50 Level Boston Center
Sat 09:07:12 AM 41.9583 -72.7136 134° Southeast 398 458 18,900 -1,300 Descending Boston Center
Sat 09:08:12 AM 41.8958 -72.6047 128° Southeast 393 452 16,400 -2,250 Descending Boston Center
Sat 09:09:12 AM 41.8356 -72.5014 128° Southeast 370 426 14,400 -2,200 Descending Boston Center
Sat 09:10:12 AM 41.7731 -72.3900 127° Southeast 369 425 12,000 -1,700 Descending Boston Center
Sat 09:11:12 AM 41.7125 -72.2789 126° Southeast 375 432 11,000 -500 Descending Boston Center
Sat 09:12:12 AM 41.6603 -72.1844 126° Southeast 364 419 11,000  Level Boston Center
Sat 09:12:42 AM 41.6225 -72.1208 128° Southeast 362 417 11,000  Level Boston Center
Sat 09:13:12 AM 41.5933 -72.0625 124° Southeast 364 419 11,000  Level Boston Center
Sat 09:13:42 AM 41.5597 -72.0128 132° Southeast 364 419 11,000  Level Boston Center
Sat 09:14:12 AM 41.5428 -71.9575 112° Southeast 364 419 11,000 -269 Level Boston Center
Sat 09:14:49 AM 41.5153 -71.8689 112° Southeast 356 410 10,700 -857 Descending Boston Center
Sat 09:15:50 AM 41.5397 -71.7522 74° East 324 373 9,600 -1,041 Descending Boston Center
Sat 09:16:50 AM 41.5997 -71.6767 43° Northeast 300 345 8,600 -894 Descending Boston Center
Sat 09:17:24 AM 41.6244 -71.6486 40° Northeast 270 311 8,200 -1,213 Descending Boston Center
Sat 09:18:24 AM 41.7053 -71.5836 31° Northeast 277 319 6,700 -1,350 Descending Boston Center
Sat 09:19:24 AM 41.7653 -71.5272 35° Northeast 287 330 5,500 -1,200 Descending Boston Center
Sat 09:20:24 AM 41.8375 -71.4619 34° Northeast 281 323 4,300 -1,400 Descending Boston Center
Sat 09:21:24 AM 41.8936 -71.4139 33° Northeast 276 318 2,700 -1,100 Descending Boston Center
Sat 09:22:24 AM 41.8864 -71.3219 96° East 208 239 2,100 -400 Descending Boston Center
Sat 09:22:54 AM 41.8694 -71.3083 149° Southeast 189 217 2,100  Level Boston Center
Sat 09:23:24 AM 41.8508 -71.3225 210° Southwest 108 124 2,100  Level Boston Center
Sat 09:24:01 AM 41.8200 -71.3453 209° Southwest 170 196 2,100  Level Boston Center

Login

Don't have an account? Register now (free) for customized features, flight alerts, and more!